Time;durP1;ratioP1;P1;durP2;ratioP2;P2;SDS_P1;SDS_P2;PMS_P1;PMS_P2;Temp;Humidity;BMP_temperature;BMP_pressure;BME280_temperature;BME280_humidity;BME280_pressure;Samples;Min_cycle;Max_cycle;Signal;HPM_P1;HPM_P2
2023/02/15 00:01:55;;;;;;;0.13;0.13;;;;;;;5.07;67.73;103015.66;5063101;28;20491;-84
2023/02/15 00:04:24;;;;;;;0.20;0.20;;;;;;;5.06;68.15;103012.16;5061029;28;20489;-84
2023/02/15 00:06:51;;;;;;;0.43;0.43;;;;;;;5.03;68.49;103017.25;5088914;28;20221;-82
2023/02/15 00:09:17;;;;;;;0.10;0.10;;;;;;;5.00;68.39;103006.66;5091353;28;20037;-83
2023/02/15 00:11:49;;;;;;;0.20;0.20;;;;;;;4.98;68.67;103005.69;5083550;28;20032;-84
2023/02/15 00:14:21;;;;;;;0.43;0.43;;;;;;;4.98;68.36;103003.06;5075194;28;20056;-84
2023/02/15 00:16:49;;;;;;;1.20;1.20;;;;;;;4.93;68.47;103004.63;5065655;28;20031;-83
2023/02/15 00:19:17;;;;;;;0.13;0.13;;;;;;;4.91;68.28;103001.03;5079008;28;20027;-84
2023/02/15 00:21:43;;;;;;;0.30;0.30;;;;;;;4.88;68.67;102999.19;5073920;28;20144;-83
2023/02/15 00:24:12;;;;;;;0.10;0.10;;;;;;;4.88;68.76;103007.06;5073320;28;20509;-86
2023/02/15 00:26:40;;;;;;;0.40;0.40;;;;;;;4.85;68.56;102992.09;5070999;28;20029;-84
2023/02/15 00:29:08;;;;;;;0.98;0.95;;;;;;;4.83;68.67;102988.50;5071224;28;20028;-82
2023/02/15 00:31:35;;;;;;;2.30;0.85;;;;;;;4.79;68.68;102980.47;5078733;28;20025;-82
2023/02/15 00:34:04;;;;;;;0.20;0.20;;;;;;;4.76;68.79;102982.94;5074289;28;20016;-85
2023/02/15 00:36:30;;;;;;;0.45;0.45;;;;;;;4.70;68.85;102975.75;5071150;28;20414;-84
2023/02/15 00:38:56;;;;;;;0.13;0.13;;;;;;;4.65;68.79;102978.19;5073970;28;20025;-83
2023/02/15 00:41:23;;;;;;;0.20;0.20;;;;;;;4.59;68.73;102985.81;5090069;28;20029;-83
2023/02/15 00:43:49;;;;;;;0.20;0.20;;;;;;;4.53;68.92;102983.84;5089205;28;20036;-83
2023/02/15 00:46:15;;;;;;;0.30;0.30;;;;;;;4.50;68.81;102982.84;5071176;28;20033;-82
2023/02/15 00:48:41;;;;;;;0.20;0.20;;;;;;;4.48;68.97;102979.25;5067104;28;20032;-82
2023/02/15 00:51:07;;;;;;;0.20;0.20;;;;;;;4.48;69.39;102985.41;5072024;28;20109;-83
2023/02/15 00:53:33;;;;;;;0.22;0.22;;;;;;;4.46;69.33;102992.34;5064615;28;20025;-83
2023/02/15 00:56:00;;;;;;;0.20;0.20;;;;;;;4.44;69.01;102987.84;5067913;28;20033;-83
2023/02/15 00:58:26;;;;;;;0.20;0.20;;;;;;;4.42;69.13;102982.53;5069678;28;20063;-83
2023/02/15 01:00:53;;;;;;;0.63;0.60;;;;;;;4.42;69.43;102984.28;5072585;28;20086;-82
2023/02/15 01:03:20;;;;;;;2.50;1.45;;;;;;;4.41;68.85;102992.97;5076124;28;20016;-84
2023/02/15 01:05:48;;;;;;;0.73;0.73;;;;;;;4.36;69.06;102984.91;5075578;28;20032;-84
2023/02/15 01:08:14;;;;;;;0.20;0.20;;;;;;;4.34;69.16;102982.22;5075143;28;20039;-83
2023/02/15 01:10:41;;;;;;;0.20;0.20;;;;;;;4.32;69.42;102981.25;5070389;28;20024;-83
2023/02/15 01:13:07;;;;;;;0.98;0.98;;;;;;;4.30;69.56;102979.41;5076031;28;20089;-82
2023/02/15 01:15:35;;;;;;;0.10;0.10;;;;;;;4.29;69.24;102977.63;5072340;28;20056;-83
2023/02/15 01:18:02;;;;;;;0.10;0.10;;;;;;;4.26;69.80;102967.91;5067289;28;20063;-83
2023/02/15 01:20:29;;;;;;;0.77;0.77;;;;;;;4.23;69.40;102962.53;5071680;28;20413;-81
2023/02/15 01:22:56;;;;;;;0.10;0.10;;;;;;;4.22;69.63;102958.09;5068811;28;20391;-83
2023/02/15 01:25:24;;;;;;;0.13;0.13;;;;;;;4.22;69.49;102960.72;5072530;28;20028;-82
2023/02/15 01:27:50;;;;;;;0.22;0.22;;;;;;;4.21;69.95;102948.44;5071462;28;20028;-83
2023/02/15 01:30:16;;;;;;;0.10;0.10;;;;;;;4.22;68.93;102945.00;5090705;28;20029;-81
2023/02/15 01:32:43;;;;;;;0.20;0.20;;;;;;;4.21;69.45;102951.97;5081777;28;20029;-83
2023/02/15 01:35:10;;;;;;;0.20;0.20;;;;;;;4.23;69.40;102944.16;5074045;28;20119;-84
2023/02/15 01:37:37;;;;;;;0.10;0.10;;;;;;;4.23;70.01;102943.28;5077280;28;20024;-85
2023/02/15 01:40:06;;;;;;;0.10;0.10;;;;;;;4.24;69.46;102945.97;5082266;28;20036;-83
2023/02/15 01:42:32;;;;;;;3.83;1.85;;;;;;;4.22;69.85;102947.63;5079204;28;20646;-84
2023/02/15 01:45:01;;;;;;;0.50;0.50;;;;;;;4.19;69.17;102935.25;5079095;28;20033;-84
2023/02/15 01:47:40;;;;;;;0.10;0.10;;;;;;;4.23;69.29;102936.28;5085503;28;20028;-84
2023/02/15 01:53:21;;;;;;;0.50;0.50;;;;;;;4.21;69.41;102938.84;5056642;28;20392;-84
2023/02/15 01:55:55;;;;;;;0.65;0.65;;;;;;;4.19;69.30;102943.13;5048633;28;20095;-84
2023/02/15 01:58:24;;;;;;;0.60;0.60;;;;;;;4.15;69.40;102943.88;5050837;28;20025;-85
2023/02/15 02:00:50;;;;;;;0.10;0.10;;;;;;;4.14;69.22;102942.06;5047919;28;20093;-85
2023/02/15 02:03:16;;;;;;;0.30;0.30;;;;;;;4.14;69.09;102939.44;5055592;28;20084;-86
2023/02/15 02:05:42;;;;;;;0.20;0.20;;;;;;;4.15;69.13;102938.63;5067756;28;20036;-86
2023/02/15 02:08:09;;;;;;;0.13;0.13;;;;;;;4.12;69.08;102933.22;5055283;28;20030;-87
2023/02/15 02:10:36;;;;;;;0.15;0.15;;;;;;;4.12;68.98;102927.97;5043507;28;20479;-84
2023/02/15 02:13:06;;;;;;;0.10;0.10;;;;;;;4.11;69.16;102915.72;5044414;28;20056;-85
2023/02/15 02:15:57;;;;;;;0.43;0.43;;;;;;;4.17;69.38;102917.69;5047447;28;20045;-85
2023/02/15 02:18:42;;;;;;;0.20;0.20;;;;;;;4.15;68.87;102906.22;5043457;28;20057;-84
2023/02/15 02:21:30;;;;;;;0.47;0.47;;;;;;;4.16;69.55;102905.38;5046248;28;20049;-85
2023/02/15 02:24:29;;;;;;;0.20;0.20;;;;;;;4.19;68.99;102909.03;5052133;28;20025;-85
2023/02/15 02:27:14;;;;;;;0.20;0.20;;;;;;;4.20;69.04;102905.56;5047609;28;20041;-85
2023/02/15 02:33:13;;;;;;;0.10;0.10;;;;;;;4.25;69.24;102894.34;5115095;27;20396;-84
2023/02/15 02:36:00;;;;;;;0.20;0.20;;;;;;;4.21;69.29;102896.88;5088841;28;20032;-85
2023/02/15 02:38:48;;;;;;;0.10;0.10;;;;;;;4.19;69.24;102893.28;5091984;28;20020;-86
2023/02/15 02:41:53;;;;;;;0.73;0.73;;;;;;;4.19;68.94;102880.16;5096377;28;20066;-85
2023/02/15 02:44:30;;;;;;;0.15;0.15;;;;;;;4.13;68.28;102877.31;5100282;28;20036;-86
2023/02/15 02:47:05;;;;;;;0.20;0.20;;;;;;;4.10;68.56;102879.81;5093054;28;20103;-85
2023/02/15 02:49:36;;;;;;;0.20;0.20;;;;;;;4.08;68.53;102873.59;5093255;28;20058;-85
2023/02/15 02:52:05;;;;;;;0.10;0.10;;;;;;;4.06;68.80;102875.25;5086986;28;20020;-85
2023/02/15 02:54:34;;;;;;;0.22;0.22;;;;;;;4.05;68.61;102869.13;5094340;28;20039;-85
2023/02/15 02:57:07;;;;;;;0.10;0.10;;;;;;;4.06;68.45;102864.78;5095167;28;20028;-86
2023/02/15 02:59:39;;;;;;;0.20;0.20;;;;;;;4.02;69.36;102858.50;5108284;28;20028;-86
2023/02/15 03:02:14;;;;;;;0.25;0.25;;;;;;;4.03;69.10;102860.28;5114711;28;20072;-84
2023/02/15 03:04:47;;;;;;;0.10;0.10;;;;;;;4.00;69.04;102859.28;5104181;28;20028;-86
2023/02/15 03:07:21;;;;;;;0.40;0.40;;;;;;;3.98;69.33;102850.47;5099377;28;20313;-85
2023/02/15 03:09:51;;;;;;;0.20;0.20;;;;;;;3.95;69.40;102851.25;5096126;28;20082;-84
2023/02/15 03:12:26;;;;;;;0.30;0.30;;;;;;;3.93;69.03;102857.28;5090946;28;20035;-85
2023/02/15 03:15:01;;;;;;;0.68;0.68;;;;;;;3.92;69.05;102858.97;5090950;28;20032;-85
2023/02/15 03:17:32;;;;;;;0.20;0.20;;;;;;;3.91;69.04;102859.81;5091512;28;20499;-86
2023/02/15 03:20:03;;;;;;;0.28;0.28;;;;;;;3.89;68.84;102864.13;5092858;28;20065;-85
2023/02/15 03:22:36;;;;;;;0.10;0.10;;;;;;;3.89;68.64;102861.50;5081671;28;20028;-85
2023/02/15 03:25:24;;;;;;;0.10;0.10;;;;;;;3.89;69.20;102857.13;5083569;28;20445;-86
2023/02/15 03:27:55;;;;;;;0.10;0.10;;;;;;;3.86;69.01;102867.53;5092253;28;20111;-84
2023/02/15 03:30:23;;;;;;;0.17;0.17;;;;;;;3.83;69.39;102862.13;5093737;28;20436;-85
2023/02/15 03:32:51;;;;;;;0.10;0.10;;;;;;;3.84;68.47;102853.44;5091417;28;20047;-84
2023/02/15 03:35:21;;;;;;;0.20;0.20;;;;;;;3.83;69.10;102851.63;5096588;28;20043;-85
2023/02/15 03:37:55;;;;;;;0.10;0.10;;;;;;;3.82;69.37;102849.84;5091165;28;20020;-86
2023/02/15 03:43:07;;;;;;;0.75;0.75;;;;;;;3.76;69.14;102846.09;5145650;27;20366;-83
2023/02/15 03:45:35;;;;;;;0.20;0.20;;;;;;;3.71;69.10;102846.81;5116833;28;20020;-84
2023/02/15 03:48:04;;;;;;;0.50;0.50;;;;;;;3.71;68.81;102846.81;5104096;28;20028;-85
2023/02/15 03:53:24;;;;;;;0.57;0.57;;;;;;;3.68;68.88;102835.31;5096712;28;20063;-84
2023/02/15 03:55:53;;;;;;;0.10;0.10;;;;;;;3.66;69.02;102836.97;5076748;28;20043;-85
2023/02/15 04:04:20;;;;;;;0.45;0.45;;;;;;;3.61;69.09;102838.50;5093096;28;20104;-86
2023/02/15 04:06:46;;;;;;;0.20;0.20;;;;;;;3.55;68.95;102834.81;5089570;28;20024;-85
2023/02/15 04:11:59;;;;;;;0.75;0.75;;;;;;;3.51;69.58;102824.13;5082040;28;20407;-85
2023/02/15 04:17:11;;;;;;;0.10;0.10;;;;;;;3.46;69.85;102817.78;5085096;28;20043;-85
2023/02/15 04:25:11;;;;;;;0.20;0.20;;;;;;;3.34;69.40;102810.31;5088055;28;20032;-85
2023/02/15 04:27:39;;;;;;;0.10;0.10;;;;;;;3.32;69.55;102809.38;5091373;28;20372;-84
2023/02/15 04:30:06;;;;;;;0.20;0.20;;;;;;;3.32;69.72;102810.25;5112940;28;20058;-85
2023/02/15 04:32:33;;;;;;;0.10;0.10;;;;;;;3.31;69.54;102797.09;5111605;28;20491;-85
2023/02/15 04:34:59;;;;;;;0.20;0.20;;;;;;;3.31;69.61;102797.09;5108004;28;20024;-83
2023/02/15 04:37:25;;;;;;;0.20;0.20;;;;;;;3.33;69.73;102806.81;5118319;28;20023;-84
2023/02/15 04:39:51;;;;;;;0.40;0.40;;;;;;;3.35;70.23;102801.63;5106672;28;20044;-86
2023/02/15 04:42:17;;;;;;;0.20;0.20;;;;;;;3.37;69.79;102802.59;5085037;28;20039;-84
2023/02/15 04:44:44;;;;;;;0.20;0.20;;;;;;;3.31;70.00;102805.84;5097237;28;20027;-85
2023/02/15 04:47:10;;;;;;;0.20;0.20;;;;;;;3.29;70.34;102798.75;5091646;28;20086;-85
2023/02/15 04:49:36;;;;;;;0.13;0.13;;;;;;;3.29;69.81;102804.91;5086412;28;20099;-85
2023/02/15 04:52:02;;;;;;;0.55;0.55;;;;;;;3.29;70.22;102801.38;5092972;28;20398;-85
2023/02/15 04:54:28;;;;;;;0.20;0.20;;;;;;;3.28;70.35;102799.56;5076026;28;20465;-86
2023/02/15 04:56:54;;;;;;;0.82;0.82;;;;;;;3.26;70.35;102798.63;5079145;28;20503;-84
2023/02/15 04:59:20;;;;;;;0.28;0.28;;;;;;;3.24;70.04;102788.97;5077846;28;20028;-85
2023/02/15 05:01:46;;;;;;;0.10;0.10;;;;;;;3.23;70.19;102795.03;5079133;28;20075;-85
2023/02/15 05:04:12;;;;;;;0.45;0.45;;;;;;;3.24;70.31;102790.72;5078564;28;20040;-85
2023/02/15 05:06:38;;;;;;;0.10;0.10;;;;;;;3.24;69.99;102785.47;5078872;28;20036;-85
2023/02/15 05:09:04;;;;;;;0.20;0.20;;;;;;;3.23;70.43;102791.53;5080942;28;20044;-86
2023/02/15 05:11:30;;;;;;;0.40;0.40;;;;;;;3.27;70.18;102787.31;5078345;28;20028;-85
2023/02/15 05:13:56;;;;;;;0.50;0.50;;;;;;;3.27;70.34;102790.84;5078075;28;20029;-85
2023/02/15 05:16:22;;;;;;;0.10;0.10;;;;;;;3.27;70.24;102790.84;5081703;28;20030;-84
2023/02/15 05:18:48;;;;;;;0.20;0.20;;;;;;;3.29;70.21;102799.66;5103770;28;20024;-84
2023/02/15 05:21:16;;;;;;;0.15;0.15;;;;;;;3.29;70.24;102786.56;5098510;28;20052;-84
2023/02/15 05:23:42;;;;;;;0.30;0.30;;;;;;;3.31;70.40;102781.38;5076568;28;20032;-85
2023/02/15 05:28:58;;;;;;;0.63;0.63;;;;;;;3.34;70.77;102787.63;5074448;28;20040;-84
2023/02/15 05:31:24;;;;;;;0.10;0.10;;;;;;;3.36;71.01;102785.06;5071426;28;20029;-85
2023/02/15 05:33:50;;;;;;;0.17;0.17;;;;;;;3.38;70.73;102781.69;5074772;28;20035;-85
2023/02/15 05:36:16;;;;;;;0.20;0.20;;;;;;;3.39;70.82;102769.50;5075400;28;20030;-85
2023/02/15 05:38:42;;;;;;;0.57;0.57;;;;;;;3.42;71.02;102774.84;5076118;28;20020;-83
2023/02/15 05:41:10;;;;;;;0.20;0.20;;;;;;;3.44;70.97;102773.19;5074720;28;20098;-85
2023/02/15 05:43:36;;;;;;;0.10;0.10;;;;;;;3.45;70.92;102768.84;5079376;28;20103;-86
2023/02/15 05:46:03;;;;;;;0.20;0.20;;;;;;;3.44;70.67;102757.47;5076802;28;20035;-85
2023/02/15 05:48:30;;;;;;;0.10;0.10;;;;;;;3.43;71.01;102760.91;5072455;28;20033;-85
2023/02/15 05:51:01;;;;;;;0.20;0.20;;;;;;;3.43;71.38;102771.41;5074492;28;20102;-85
2023/02/15 05:53:29;;;;;;;0.10;0.10;;;;;;;3.36;71.26;102778.09;5075851;28;20108;-86
2023/02/15 05:55:58;;;;;;;0.10;0.10;;;;;;;3.29;70.76;102780.41;5071786;28;20040;-84
2023/02/15 05:58:26;;;;;;;0.10;0.10;;;;;;;3.24;71.13;102775.88;5076789;28;20025;-85
2023/02/15 06:00:52;;;;;;;0.60;0.60;;;;;;;3.18;70.85;102770.38;5067733;28;20025;-86
2023/02/15 06:03:19;;;;;;;0.10;0.10;;;;;;;3.14;70.37;102770.19;5080647;28;20020;-85
2023/02/15 06:05:45;;;;;;;0.52;0.52;;;;;;;3.08;70.84;102769.09;5070192;28;20028;-85
2023/02/15 06:08:11;;;;;;;0.85;0.85;;;;;;;3.05;70.73;102769.00;5074008;28;20032;-85
2023/02/15 06:10:37;;;;;;;0.10;0.10;;;;;;;3.02;70.64;102774.09;5074369;28;20036;-85
2023/02/15 06:13:03;;;;;;;0.63;0.63;;;;;;;3.00;70.77;102774.84;5097090;28;20069;-84
2023/02/15 06:15:29;;;;;;;0.10;0.10;;;;;;;2.98;70.52;102776.50;5099642;28;20017;-83
2023/02/15 06:17:55;;;;;;;0.20;0.20;;;;;;;2.97;70.92;102774.72;5072872;28;20036;-84
2023/02/15 06:20:21;;;;;;;0.13;0.13;;;;;;;3.01;70.83;102771.41;5066123;28;20029;-85
2023/02/15 06:22:47;;;;;;;0.20;0.20;;;;;;;3.00;70.32;102774.84;5067760;28;20180;-84
2023/02/15 06:25:13;;;;;;;1.52;1.48;;;;;;;2.99;70.64;102775.66;5057351;28;20091;-86
2023/02/15 06:27:42;;;;;;;0.10;0.10;;;;;;;2.99;70.66;102773.06;5074188;28;20024;-86
2023/02/15 06:30:10;;;;;;;0.30;0.30;;;;;;;2.97;70.37;102773.00;5065451;28;20040;-85
2023/02/15 06:32:36;;;;;;;0.20;0.20;;;;;;;2.95;70.35;102765.91;5059407;28;20029;-86
2023/02/15 06:35:02;;;;;;;0.15;0.15;;;;;;;2.92;70.14;102767.56;5064901;28;20048;-85
2023/02/15 06:37:28;;;;;;;0.10;0.10;;;;;;;2.91;70.17;102772.72;5066383;28;20091;-85
2023/02/15 06:39:54;;;;;;;0.15;0.15;;;;;;;2.89;70.38;102771.75;5068452;28;20044;-84
2023/02/15 06:42:22;;;;;;;0.20;0.20;;;;;;;2.88;70.41;102770.88;5068022;28;20082;-85
2023/02/15 06:44:48;;;;;;;0.20;0.20;;;;;;;2.87;70.13;102768.22;5059054;28;20079;-84
2023/02/15 06:47:14;;;;;;;0.20;0.20;;;;;;;2.86;70.46;102772.53;5063152;28;20024;-85
2023/02/15 06:49:40;;;;;;;0.10;0.10;;;;;;;2.85;70.37;102769.84;5064137;28;20028;-85
2023/02/15 06:52:06;;;;;;;0.10;0.10;;;;;;;2.85;70.54;102768.13;5058788;28;20059;-84
2023/02/15 06:54:32;;;;;;;0.10;0.10;;;;;;;2.88;70.55;102770.00;5076421;28;20079;-85
2023/02/15 06:56:58;;;;;;;2.00;1.85;;;;;;;2.88;70.44;102765.66;5083377;28;20032;-85
2023/02/15 06:59:24;;;;;;;0.57;0.57;;;;;;;2.88;70.41;102765.66;5096413;28;20037;-86
2023/02/15 07:01:50;;;;;;;0.30;0.30;;;;;;;2.87;70.55;102758.63;5058377;28;20056;-85
2023/02/15 07:04:16;;;;;;;0.32;0.32;;;;;;;2.88;70.52;102759.53;5055789;28;20075;-86
2023/02/15 07:06:42;;;;;;;0.13;0.13;;;;;;;2.89;70.51;102748.19;5056173;28;20035;-85
2023/02/15 07:09:09;;;;;;;0.32;0.32;;;;;;;2.90;70.51;102753.53;5053165;28;20455;-86
2023/02/15 07:14:21;;;;;;;0.10;0.10;;;;;;;2.97;70.56;102751.16;5053483;28;20045;-85
2023/02/15 07:16:47;;;;;;;0.10;0.10;;;;;;;3.00;70.32;102757.41;5058755;28;20040;-85
2023/02/15 07:19:13;;;;;;;0.40;0.40;;;;;;;3.04;70.81;102753.19;5053108;28;20180;-86
2023/02/15 07:21:39;;;;;;;0.40;0.40;;;;;;;3.09;70.88;102751.69;5055076;28;20025;-84
2023/02/15 07:24:05;;;;;;;0.68;0.68;;;;;;;3.15;70.52;102749.28;5055068;28;20029;-85
2023/02/15 07:26:32;;;;;;;0.15;0.15;;;;;;;3.18;70.83;102752.03;5051653;28;20029;-85
2023/02/15 07:28:58;;;;;;;0.10;0.10;;;;;;;3.20;70.53;102747.78;5054576;28;20492;-86
2023/02/15 07:31:24;;;;;;;0.20;0.20;;;;;;;3.25;70.86;102747.94;5056132;28;20132;-86
2023/02/15 07:33:50;;;;;;;0.10;0.10;;;;;;;3.29;70.87;102742.03;5064207;28;20047;-86
2023/02/15 07:36:16;;;;;;;0.68;0.68;;;;;;;3.33;70.87;102737.81;5058653;28;20024;-84
2023/02/15 07:38:43;;;;;;;0.50;0.50;;;;;;;3.38;70.93;102733.63;5058883;28;20064;-85
2023/02/15 07:41:13;;;;;;;0.20;0.20;;;;;;;3.43;70.65;102729.47;5056806;28;20025;-86
2023/02/15 07:43:41;;;;;;;0.63;0.63;;;;;;;3.46;70.63;102733.94;5056700;28;20078;-85
2023/02/15 07:46:11;;;;;;;0.50;0.50;;;;;;;3.51;70.71;102735.00;5063837;28;20072;-84
2023/02/15 07:48:38;;;;;;;0.10;0.10;;;;;;;3.55;71.17;102731.66;5076026;28;20012;-83
2023/02/15 07:51:06;;;;;;;0.55;0.55;;;;;;;3.61;70.71;102725.78;5075613;28;20048;-85
2023/02/15 07:53:33;;;;;;;0.13;0.13;;;;;;;3.64;70.97;102724.19;5057261;28;20029;-82
2023/02/15 07:56:01;;;;;;;0.30;0.30;;;;;;;3.68;70.75;102722.56;5058641;28;20025;-84
2023/02/15 07:58:50;;;;;;;1.00;1.00;;;;;;;3.70;71.31;102723.50;5064881;28;20032;-83
2023/02/15 08:01:14;;;;;;;0.20;0.20;;;;;;;3.74;70.93;102722.81;5053245;28;20037;-84
2023/02/15 08:03:40;;;;;;;0.50;0.50;;;;;;;3.78;70.77;102724.72;5052622;28;20064;-84
2023/02/15 08:06:07;;;;;;;0.20;0.20;;;;;;;3.83;70.90;102720.53;5052556;28;20064;-84
2023/02/15 08:08:35;;;;;;;0.45;0.45;;;;;;;3.87;70.86;102714.56;5052850;28;20029;-85
2023/02/15 08:11:36;;;;;;;0.10;0.10;;;;;;;3.93;70.90;102713.03;5063752;28;20492;-85
2023/02/15 08:13:54;;;;;;;0.10;0.10;;;;;;;3.98;70.89;102714.09;5052721;28;20105;-85
2023/02/15 08:19:22;;;;;;;1.50;1.48;;;;;;;4.13;71.50;102709.41;5081963;28;20383;-85
2023/02/15 08:21:51;;;;;;;1.20;0.98;;;;;;;4.14;71.19;102711.19;5091399;28;20053;-84
2023/02/15 08:24:20;;;;;;;0.40;0.40;;;;;;;4.19;71.91;102707.00;5085762;28;20048;-85
2023/02/15 08:26:47;;;;;;;0.10;0.10;;;;;;;4.24;71.87;102708.88;5075275;28;20033;-84
2023/02/15 08:29:15;;;;;;;5.07;1.65;;;;;;;4.28;71.77;102706.44;5061496;28;20036;-85
2023/02/15 08:31:42;;;;;;;0.20;0.20;;;;;;;4.35;71.48;102710.19;5066806;28;20032;-85
2023/02/15 08:34:10;;;;;;;0.13;0.13;;;;;;;4.41;71.69;102691.13;5061868;28;20032;-86
2023/02/15 08:36:36;;;;;;;0.30;0.30;;;;;;;4.46;71.69;102693.09;5058072;28;20037;-85
2023/02/15 08:39:05;;;;;;;0.30;0.30;;;;;;;4.52;71.41;102702.91;5062632;28;20069;-86
2023/02/15 08:41:34;;;;;;;1.30;0.93;;;;;;;4.59;71.43;102696.16;5072594;28;20024;-86
2023/02/15 08:44:03;;;;;;;3.05;1.02;;;;;;;4.66;71.74;102690.25;5079432;28;20043;-88
2023/02/15 08:46:32;;;;;;;0.10;0.10;;;;;;;4.72;71.32;102686.94;5085205;28;20084;-89
2023/02/15 08:48:59;;;;;;;0.10;0.10;;;;;;;4.75;71.52;102685.31;5082839;28;20043;-87
2023/02/15 08:51:30;;;;;;;3.50;1.85;;;;;;;4.83;71.34;102686.44;5055172;28;20029;-87
2023/02/15 08:53:58;;;;;;;0.75;0.75;;;;;;;4.87;71.82;102690.06;5065587;28;20142;-87
2023/02/15 08:56:27;;;;;;;0.43;0.43;;;;;;;4.93;71.93;102689.41;5052965;28;20025;-87
2023/02/15 08:58:56;;;;;;;1.02;1.02;;;;;;;5.07;71.53;102688.13;5090237;28;20051;-86
2023/02/15 09:01:25;;;;;;;1.15;1.15;;;;;;;5.15;71.28;102691.88;5080577;28;20044;-86
2023/02/15 09:03:55;;;;;;;0.65;0.65;;;;;;;5.22;71.72;102684.19;5054925;28;20091;-87
2023/02/15 09:06:34;;;;;;;0.20;0.20;;;;;;;5.31;71.43;102695.00;5058789;28;20021;-88
2023/02/15 09:09:00;;;;;;;0.43;0.43;;;;;;;5.41;71.32;102694.44;5051644;28;20108;-86
2023/02/15 09:11:28;;;;;;;0.17;0.17;;;;;;;5.50;71.35;102694.72;5063192;28;20456;-84
2023/02/15 09:16:36;;;;;;;0.20;0.20;;;;;;;5.70;71.21;102673.41;5036369;28;20409;-84
2023/02/15 09:19:04;;;;;;;3.33;2.00;;;;;;;5.82;71.20;102680.78;5032522;28;20056;-82
2023/02/15 09:21:31;;;;;;;0.40;0.40;;;;;;;5.91;71.16;102682.78;5056356;28;20554;-87
2023/02/15 09:24:01;;;;;;;1.05;1.05;;;;;;;5.99;70.88;102699.69;5045565;28;20057;-88
2023/02/15 09:26:29;;;;;;;0.50;0.50;;;;;;;6.07;71.09;102692.94;5040355;28;20045;-86
2023/02/15 09:28:58;;;;;;;0.10;0.10;;;;;;;6.20;71.07;102693.28;5041965;28;20104;-87
2023/02/15 09:31:27;;;;;;;1.13;1.08;;;;;;;6.32;70.91;102693.63;5037998;28;20040;-89
2023/02/15 09:33:57;;;;;;;0.95;0.95;;;;;;;6.45;70.48;102690.44;5046486;28;20030;-87
2023/02/15 09:36:26;;;;;;;0.73;0.73;;;;;;;6.55;70.54;102693.34;5043071;28;20486;-87
2023/02/15 09:39:14;;;;;;;0.50;0.50;;;;;;;6.72;70.15;102685.88;5049355;28;20040;-87
2023/02/15 09:50:34;;;;;;;0.27;0.27;;;;;;;7.00;68.85;102676.91;5100659;27;1169853;-85
2023/02/15 10:07:39;;;;;;;2.13;1.98;;;;;;;7.58;67.46;102679.13;5095966;27;1179032;-85
2023/02/15 10:13:23;;;;;;;0.80;0.80;;;;;;;7.80;67.61;102692.78;5126740;27;20407;-87
2023/02/15 10:16:19;;;;;;;0.20;0.20;;;;;;;7.94;67.21;102683.41;5101203;28;20525;-84
2023/02/15 10:21:54;;;;;;;2.42;1.40;;;;;;;8.19;67.20;102686.53;5053361;28;20416;-86
2023/02/15 10:24:36;;;;;;;0.77;0.77;;;;;;;8.31;67.00;102688.50;5042917;28;20035;-86
2023/02/15 10:27:15;;;;;;;0.28;0.28;;;;;;;8.39;66.21;102679.00;5051411;28;20504;-85
2023/02/15 10:30:02;;;;;;;1.75;1.08;;;;;;;8.49;66.74;102670.41;5051352;28;20029;-85
2023/02/15 10:32:35;;;;;;;3.20;0.95;;;;;;;8.55;66.71;102681.09;5041541;28;20140;-85
2023/02/15 10:35:27;;;;;;;7.65;2.97;;;;;;;8.65;66.09;102679.50;5047212;28;20135;-86
2023/02/15 10:38:04;;;;;;;1.90;1.05;;;;;;;8.72;65.88;102678.75;5053253;28;20043;-85
2023/02/15 10:41:03;;;;;;;4.22;1.60;;;;;;;8.93;66.23;102671.16;5058736;28;20029;-87
2023/02/15 10:43:45;;;;;;;0.60;0.60;;;;;;;8.96;65.72;102653.59;5055990;28;20029;-86
2023/02/15 10:58:20;;;;;;;0.63;0.63;;;;;;;9.57;64.15;102651.78;5054624;28;20407;-85
2023/02/15 11:06:18;;;;;;;1.35;1.35;;;;;;;9.86;64.09;102637.16;5107561;27;20396;-87
2023/02/15 11:08:55;;;;;;;1.15;1.15;;;;;;;10.02;63.84;102625.00;5115405;28;20047;-87
2023/02/15 11:11:27;;;;;;;3.22;0.93;;;;;;;10.17;63.45;102634.00;5093793;28;20058;-87
2023/02/15 11:14:05;;;;;;;0.82;0.82;;;;;;;10.33;63.60;102625.31;5090190;28;20027;-88
2023/02/15 11:16:38;;;;;;;0.43;0.43;;;;;;;10.44;62.41;102612.22;5092477;28;20115;-88
2023/02/15 11:19:18;;;;;;;1.15;1.15;;;;;;;10.56;61.59;102615.84;5088816;28;20079;-87
2023/02/15 11:21:49;;;;;;;0.73;0.73;;;;;;;10.58;60.04;102614.06;5086928;28;20020;-87
2023/02/15 11:24:20;;;;;;;0.52;0.52;;;;;;;10.66;61.60;102612.38;5091274;28;20026;-87
2023/02/15 11:26:54;;;;;;;2.28;2.17;;;;;;;10.73;62.15;102608.91;5091003;28;20111;-86
2023/02/15 11:29:52;;;;;;;1.85;1.10;;;;;;;10.91;62.14;102596.66;5104595;28;20028;-85
2023/02/15 11:37:54;;;;;;;1.10;1.02;;;;;;;11.27;61.26;102601.28;5122621;27;20897;-85
2023/02/15 11:40:48;;;;;;;0.93;0.93;;;;;;;11.44;61.40;102604.03;5115251;28;20031;-85
2023/02/15 11:44:22;;;;;;;1.88;1.77;;;;;;;11.53;58.96;102586.38;5107966;28;20103;-88
2023/02/15 11:46:45;;;;;;;0.98;0.98;;;;;;;11.59;58.99;102579.31;5095508;28;20024;-89
2023/02/15 11:49:27;;;;;;;0.22;0.22;;;;;;;11.73;59.86;102581.16;5078098;28;20032;-87
2023/02/15 11:51:55;;;;;;;0.30;0.30;;;;;;;11.74;59.18;102588.19;5085568;28;20036;-87
2023/02/15 11:54:28;;;;;;;0.55;0.55;;;;;;;11.85;58.88;102581.19;5076625;28;20024;-87
2023/02/15 11:57:11;;;;;;;;;;;;;;;;;;;;;
2023/02/15 12:00:01;;;;;;;2.88;2.75;;;;;;;11.96;56.99;102574.16;5073301;28;20140;-88
2023/02/15 12:02:29;;;;;;;;;;;;;;;12.11;56.81;102564.41;5074856;28;20397;-87
2023/02/15 12:05:04;;;;;;;0.82;0.82;;;;;;;12.16;57.61;102565.31;5073000;28;19914;-87
2023/02/15 12:07:53;;;;;;;0.55;0.55;;;;;;;12.34;56.85;102556.47;5071660;28;20016;-86
2023/02/15 12:10:31;;;;;;;1.85;1.75;;;;;;;12.51;57.77;102548.50;5080456;28;20035;-86
2023/02/15 12:13:19;;;;;;;3.83;3.13;;;;;;;12.67;54.83;102554.66;5077161;28;20025;-88
2023/02/15 12:15:48;;;;;;;2.08;1.17;;;;;;;12.75;55.32;102552.00;5081317;28;20063;-86
2023/02/15 12:22:48;;;;;;;0.20;0.20;;;;;;;13.07;52.85;102543.03;5026941;28;20034;-87
2023/02/15 12:27:06;;;;;;;1.35;0.90;;;;;;;13.16;52.59;102536.81;4981628;28;20042;-87
2023/02/15 12:29:01;;;;;;;;;;;;;;;;;;;;;
2023/02/15 12:31:40;;;;;;;6.10;3.40;;;;;;;13.40;51.75;102544.72;5074697;28;20063;-87
2023/02/15 12:34:39;;;;;;;6.28;1.42;;;;;;;13.46;50.46;102533.19;5083392;28;20063;-86
2023/02/15 12:37:15;;;;;;;2.65;2.55;;;;;;;13.54;51.28;102539.31;5081362;28;20123;-87
2023/02/15 12:39:56;;;;;;;1.35;1.35;;;;;;;13.56;50.68;102540.22;5074443;28;20573;-87
2023/02/15 12:42:24;;;;;;;1.30;1.20;;;;;;;13.53;50.82;102542.00;5074126;28;20375;-86
2023/02/15 12:44:57;;;;;;;0.73;0.73;;;;;;;13.50;50.81;102548.25;5074701;28;20620;-87
2023/02/15 12:47:26;;;;;;;0.30;0.30;;;;;;;13.45;51.28;102551.84;5071505;28;20042;-88
2023/02/15 12:50:17;;;;;;;1.08;1.08;;;;;;;13.48;50.59;102539.34;5070804;28;20129;-86
2023/02/15 12:52:49;;;;;;;1.95;1.52;;;;;;;13.43;51.28;102547.41;5067387;28;20539;-86
2023/02/15 12:58:23;;;;;;;0.90;0.88;;;;;;;13.47;51.20;102536.72;5066906;28;20385;-86
2023/02/15 13:04:06;;;;;;;1.37;1.33;;;;;;;13.49;51.37;102526.94;5079926;27;1177499;-85
2023/02/15 13:06:35;;;;;;;1.42;1.38;;;;;;;13.46;51.66;102535.84;5100545;28;20036;-85
2023/02/15 13:09:17;;;;;;;0.85;0.85;;;;;;;13.60;51.16;102525.09;5105199;28;20070;-85
2023/02/15 13:11:45;;;;;;;1.50;1.38;;;;;;;13.57;50.76;102520.69;5113272;28;20043;-85
2023/02/15 13:14:22;;;;;;;1.65;1.40;;;;;;;13.61;51.15;102528.66;5109413;28;20059;-86
2023/02/15 13:16:52;;;;;;;1.73;1.55;;;;;;;13.53;50.04;102521.59;5107318;28;20038;-86
2023/02/15 13:22:10;;;;;;;3.47;3.22;;;;;;;13.57;50.67;102520.69;5087072;27;1400900;-86
2023/02/15 13:24:42;;;;;;;1.35;1.35;;;;;;;13.58;50.67;102503.81;5113157;28;20028;-84
2023/02/15 13:27:18;;;;;;;7.07;2.42;;;;;;;13.63;50.87;102510.88;5128020;28;20020;-86
2023/02/15 13:29:49;;;;;;;4.32;2.55;;;;;;;13.63;50.49;102508.22;5133395;28;20024;-85
2023/02/15 13:32:28;;;;;;;0.85;0.57;;;;;;;13.66;50.63;102503.75;5118836;28;20364;-86
2023/02/15 13:34:57;;;;;;;3.92;1.30;;;;;;;13.67;50.97;102507.31;5106225;28;20107;-86
2023/02/15 13:40:29;;;;;;;0.82;0.82;;;;;;;13.72;50.38;102510.81;5060589;28;20389;-86
2023/02/15 13:43:05;;;;;;;0.77;0.70;;;;;;;13.73;50.85;102497.50;5057103;28;20041;-87